sensor_id;sensor_type;location;lat;lon;timestamp;P1;durP1;ratioP1;P2;durP2;ratioP2
25511;SDS011;13414;44.534;18.700;2022-09-27T00:00:47;53.85;;;40.58;;
25511;SDS011;13414;44.534;18.700;2022-09-27T00:03:14;55.78;;;39.58;;
25511;SDS011;13414;44.534;18.700;2022-09-27T00:05:41;49.42;;;34.33;;
25511;SDS011;13414;44.534;18.700;2022-09-27T00:08:09;45.63;;;32.55;;
25511;SDS011;13414;44.534;18.700;2022-09-27T00:10:36;48.83;;;32.78;;
25511;SDS011;13414;44.534;18.700;2022-09-27T00:13:03;44.20;;;32.55;;
25511;SDS011;13414;44.534;18.700;2022-09-27T00:15:31;47.47;;;33.30;;
25511;SDS011;13414;44.534;18.700;2022-09-27T00:17:59;45.42;;;32.97;;
25511;SDS011;13414;44.534;18.700;2022-09-27T00:20:27;46.60;;;32.20;;
25511;SDS011;13414;44.534;18.700;2022-09-27T00:22:54;53.25;;;34.80;;
25511;SDS011;13414;44.534;18.700;2022-09-27T00:25:21;49.22;;;36.35;;
25511;SDS011;13414;44.534;18.700;2022-09-27T00:27:49;55.30;;;38.88;;
25511;SDS011;13414;44.534;18.700;2022-09-27T00:30:16;50.95;;;38.05;;
25511;SDS011;13414;44.534;18.700;2022-09-27T00:32:43;51.88;;;38.58;;
25511;SDS011;13414;44.534;18.700;2022-09-27T00:35:13;55.83;;;41.58;;
25511;SDS011;13414;44.534;18.700;2022-09-27T00:37:41;53.60;;;39.80;;
25511;SDS011;13414;44.534;18.700;2022-09-27T00:40:08;66.97;;;43.40;;
25511;SDS011;13414;44.534;18.700;2022-09-27T00:42:36;59.60;;;41.55;;
25511;SDS011;13414;44.534;18.700;2022-09-27T00:45:05;63.33;;;40.47;;
25511;SDS011;13414;44.534;18.700;2022-09-27T00:47:42;60.72;;;40.78;;
25511;SDS011;13414;44.534;18.700;2022-09-27T00:50:25;61.03;;;39.50;;
25511;SDS011;13414;44.534;18.700;2022-09-27T00:53:02;54.60;;;37.47;;
25511;SDS011;13414;44.534;18.700;2022-09-27T00:55:36;48.28;;;33.45;;
25511;SDS011;13414;44.534;18.700;2022-09-27T00:58:07;67.10;;;38.67;;
25511;SDS011;13414;44.534;18.700;2022-09-27T01:00:36;75.63;;;43.15;;
25511;SDS011;13414;44.534;18.700;2022-09-27T01:03:08;83.78;;;45.33;;
25511;SDS011;13414;44.534;18.700;2022-09-27T01:05:40;94.80;;;48.42;;
25511;SDS011;13414;44.534;18.700;2022-09-27T01:08:08;92.03;;;46.00;;
25511;SDS011;13414;44.534;18.700;2022-09-27T01:10:35;79.72;;;43.25;;
25511;SDS011;13414;44.534;18.700;2022-09-27T01:13:11;109.05;;;46.72;;
25511;SDS011;13414;44.534;18.700;2022-09-27T01:15:46;100.93;;;44.83;;
25511;SDS011;13414;44.534;18.700;2022-09-27T01:18:22;94.57;;;43.25;;
25511;SDS011;13414;44.534;18.700;2022-09-27T01:21:09;71.50;;;39.65;;
25511;SDS011;13414;44.534;18.700;2022-09-27T01:24:09;74.47;;;39.20;;
25511;SDS011;13414;44.534;18.700;2022-09-27T01:26:55;92.03;;;39.05;;
25511;SDS011;13414;44.534;18.700;2022-09-27T01:29:50;110.85;;;38.97;;
25511;SDS011;13414;44.534;18.700;2022-09-27T01:32:31;78.18;;;35.70;;
25511;SDS011;13414;44.534;18.700;2022-09-27T01:35:05;87.82;;;33.75;;
25511;SDS011;13414;44.534;18.700;2022-09-27T01:37:43;94.00;;;36.15;;
25511;SDS011;13414;44.534;18.700;2022-09-27T01:40:19;63.60;;;36.05;;
25511;SDS011;13414;44.534;18.700;2022-09-27T01:43:29;65.65;;;35.45;;
25511;SDS011;13414;44.534;18.700;2022-09-27T01:46:02;53.35;;;31.40;;
25511;SDS011;13414;44.534;18.700;2022-09-27T01:49:05;73.18;;;34.05;;
25511;SDS011;13414;44.534;18.700;2022-09-27T01:51:38;66.53;;;32.15;;
25511;SDS011;13414;44.534;18.700;2022-09-27T01:54:11;56.53;;;32.22;;
25511;SDS011;13414;44.534;18.700;2022-09-27T01:57:00;50.20;;;32.47;;
25511;SDS011;13414;44.534;18.700;2022-09-27T01:59:36;54.00;;;32.33;;
25511;SDS011;13414;44.534;18.700;2022-09-27T02:02:26;49.45;;;29.98;;
25511;SDS011;13414;44.534;18.700;2022-09-27T02:05:38;50.67;;;30.25;;
25511;SDS011;13414;44.534;18.700;2022-09-27T02:08:30;52.58;;;29.88;;
25511;SDS011;13414;44.534;18.700;2022-09-27T02:11:09;54.30;;;29.92;;
25511;SDS011;13414;44.534;18.700;2022-09-27T02:13:44;92.35;;;32.50;;
25511;SDS011;13414;44.534;18.700;2022-09-27T02:16:50;47.30;;;28.63;;
25511;SDS011;13414;44.534;18.700;2022-09-27T02:19:36;58.42;;;30.15;;
25511;SDS011;13414;44.534;18.700;2022-09-27T02:22:15;71.90;;;29.63;;
25511;SDS011;13414;44.534;18.700;2022-09-27T02:24:48;51.17;;;30.02;;
25511;SDS011;13414;44.534;18.700;2022-09-27T02:27:21;49.05;;;31.38;;
25511;SDS011;13414;44.534;18.700;2022-09-27T02:29:54;49.17;;;30.42;;
25511;SDS011;13414;44.534;18.700;2022-09-27T02:32:27;40.67;;;27.98;;
25511;SDS011;13414;44.534;18.700;2022-09-27T02:34:56;42.70;;;29.15;;
25511;SDS011;13414;44.534;18.700;2022-09-27T02:37:28;37.95;;;27.67;;
25511;SDS011;13414;44.534;18.700;2022-09-27T02:39:56;39.42;;;27.10;;
25511;SDS011;13414;44.534;18.700;2022-09-27T02:42:25;43.33;;;28.80;;
25511;SDS011;13414;44.534;18.700;2022-09-27T02:44:53;47.22;;;29.42;;
25511;SDS011;13414;44.534;18.700;2022-09-27T02:47:27;55.97;;;30.80;;
25511;SDS011;13414;44.534;18.700;2022-09-27T02:50:14;41.95;;;28.95;;
25511;SDS011;13414;44.534;18.700;2022-09-27T02:53:28;56.17;;;27.60;;
25511;SDS011;13414;44.534;18.700;2022-09-27T02:56:24;44.67;;;28.40;;
25511;SDS011;13414;44.534;18.700;2022-09-27T02:59:06;46.85;;;30.17;;
25511;SDS011;13414;44.534;18.700;2022-09-27T03:02:00;53.50;;;31.42;;
25511;SDS011;13414;44.534;18.700;2022-09-27T03:04:48;43.33;;;28.85;;
25511;SDS011;13414;44.534;18.700;2022-09-27T03:07:21;39.03;;;27.73;;
25511;SDS011;13414;44.534;18.700;2022-09-27T03:09:51;35.72;;;26.02;;
25511;SDS011;13414;44.534;18.700;2022-09-27T03:12:19;37.80;;;26.85;;
25511;SDS011;13414;44.534;18.700;2022-09-27T03:14:51;34.38;;;25.70;;
25511;SDS011;13414;44.534;18.700;2022-09-27T03:17:38;45.08;;;27.92;;
25511;SDS011;13414;44.534;18.700;2022-09-27T03:20:24;37.88;;;27.00;;
25511;SDS011;13414;44.534;18.700;2022-09-27T03:23:02;36.30;;;25.25;;
25511;SDS011;13414;44.534;18.700;2022-09-27T03:25:31;34.63;;;25.40;;
25511;SDS011;13414;44.534;18.700;2022-09-27T03:27:59;37.03;;;26.38;;
25511;SDS011;13414;44.534;18.700;2022-09-27T03:30:27;35.97;;;27.20;;
25511;SDS011;13414;44.534;18.700;2022-09-27T03:32:54;40.33;;;28.27;;
25511;SDS011;13414;44.534;18.700;2022-09-27T03:35:36;40.90;;;27.60;;
25511;SDS011;13414;44.534;18.700;2022-09-27T03:38:04;42.47;;;28.15;;
25511;SDS011;13414;44.534;18.700;2022-09-27T03:40:33;42.00;;;29.50;;
25511;SDS011;13414;44.534;18.700;2022-09-27T03:43:01;48.30;;;30.33;;
25511;SDS011;13414;44.534;18.700;2022-09-27T03:45:31;48.17;;;31.67;;
25511;SDS011;13414;44.534;18.700;2022-09-27T03:48:01;52.35;;;32.90;;
25511;SDS011;13414;44.534;18.700;2022-09-27T03:50:29;49.28;;;31.33;;
25511;SDS011;13414;44.534;18.700;2022-09-27T03:52:57;40.15;;;26.92;;
25511;SDS011;13414;44.534;18.700;2022-09-27T03:55:24;35.03;;;25.42;;
25511;SDS011;13414;44.534;18.700;2022-09-27T03:57:53;34.67;;;24.15;;
25511;SDS011;13414;44.534;18.700;2022-09-27T04:00:21;33.60;;;25.27;;
25511;SDS011;13414;44.534;18.700;2022-09-27T04:02:48;32.10;;;23.58;;
25511;SDS011;13414;44.534;18.700;2022-09-27T04:05:22;30.88;;;23.35;;
25511;SDS011;13414;44.534;18.700;2022-09-27T04:07:54;39.08;;;26.17;;
25511;SDS011;13414;44.534;18.700;2022-09-27T04:10:22;37.53;;;24.92;;
25511;SDS011;13414;44.534;18.700;2022-09-27T04:12:50;34.92;;;24.98;;
25511;SDS011;13414;44.534;18.700;2022-09-27T04:15:21;39.60;;;25.02;;
25511;SDS011;13414;44.534;18.700;2022-09-27T04:17:49;38.05;;;26.23;;
25511;SDS011;13414;44.534;18.700;2022-09-27T04:20:22;41.58;;;26.17;;
25511;SDS011;13414;44.534;18.700;2022-09-27T04:22:50;47.97;;;26.60;;
25511;SDS011;13414;44.534;18.700;2022-09-27T04:25:19;41.00;;;26.10;;
25511;SDS011;13414;44.534;18.700;2022-09-27T04:27:48;51.25;;;29.58;;
25511;SDS011;13414;44.534;18.700;2022-09-27T04:30:19;60.03;;;33.17;;
25511;SDS011;13414;44.534;18.700;2022-09-27T04:32:57;67.35;;;35.25;;
25511;SDS011;13414;44.534;18.700;2022-09-27T04:35:43;61.75;;;32.47;;
25511;SDS011;13414;44.534;18.700;2022-09-27T04:38:28;64.63;;;35.10;;
25511;SDS011;13414;44.534;18.700;2022-09-27T04:40:56;114.85;;;51.53;;
25511;SDS011;13414;44.534;18.700;2022-09-27T04:43:27;84.40;;;45.30;;
25511;SDS011;13414;44.534;18.700;2022-09-27T04:45:56;94.15;;;44.63;;
25511;SDS011;13414;44.534;18.700;2022-09-27T04:48:24;98.57;;;39.30;;
25511;SDS011;13414;44.534;18.700;2022-09-27T04:50:55;98.30;;;37.22;;
25511;SDS011;13414;44.534;18.700;2022-09-27T04:53:23;93.57;;;36.00;;
25511;SDS011;13414;44.534;18.700;2022-09-27T04:55:51;195.10;;;42.42;;
25511;SDS011;13414;44.534;18.700;2022-09-27T04:58:19;72.38;;;33.95;;
25511;SDS011;13414;44.534;18.700;2022-09-27T05:00:47;63.72;;;33.47;;
25511;SDS011;13414;44.534;18.700;2022-09-27T05:03:50;56.30;;;30.40;;
25511;SDS011;13414;44.534;18.700;2022-09-27T05:06:17;95.25;;;25.25;;
25511;SDS011;13414;44.534;18.700;2022-09-27T05:08:45;100.03;;;27.52;;
25511;SDS011;13414;44.534;18.700;2022-09-27T05:11:23;47.97;;;27.15;;
25511;SDS011;13414;44.534;18.700;2022-09-27T05:14:09;44.30;;;26.90;;
25511;SDS011;13414;44.534;18.700;2022-09-27T05:17:04;40.83;;;24.50;;
25511;SDS011;13414;44.534;18.700;2022-09-27T05:19:42;34.55;;;22.60;;
25511;SDS011;13414;44.534;18.700;2022-09-27T05:22:39;30.63;;;21.75;;
25511;SDS011;13414;44.534;18.700;2022-09-27T05:25:07;40.72;;;20.60;;
25511;SDS011;13414;44.534;18.700;2022-09-27T05:27:34;28.92;;;20.73;;
25511;SDS011;13414;44.534;18.700;2022-09-27T05:30:02;32.08;;;21.52;;
25511;SDS011;13414;44.534;18.700;2022-09-27T05:32:53;30.65;;;18.88;;
25511;SDS011;13414;44.534;18.700;2022-09-27T05:35:25;30.98;;;18.42;;
25511;SDS011;13414;44.534;18.700;2022-09-27T05:37:55;33.05;;;20.00;;
25511;SDS011;13414;44.534;18.700;2022-09-27T05:40:27;24.33;;;18.90;;
25511;SDS011;13414;44.534;18.700;2022-09-27T05:42:55;23.40;;;19.00;;
25511;SDS011;13414;44.534;18.700;2022-09-27T05:45:23;25.50;;;19.92;;
25511;SDS011;13414;44.534;18.700;2022-09-27T05:47:53;33.28;;;23.13;;
25511;SDS011;13414;44.534;18.700;2022-09-27T05:50:22;37.20;;;24.10;;
25511;SDS011;13414;44.534;18.700;2022-09-27T05:52:51;36.10;;;24.92;;
25511;SDS011;13414;44.534;18.700;2022-09-27T05:55:19;46.42;;;24.20;;
25511;SDS011;13414;44.534;18.700;2022-09-27T05:57:53;36.15;;;22.95;;
25511;SDS011;13414;44.534;18.700;2022-09-27T06:00:24;40.65;;;26.15;;
25511;SDS011;13414;44.534;18.700;2022-09-27T06:02:54;45.83;;;27.35;;
25511;SDS011;13414;44.534;18.700;2022-09-27T06:05:47;37.28;;;26.17;;
25511;SDS011;13414;44.534;18.700;2022-09-27T06:08:36;48.80;;;30.48;;
25511;SDS011;13414;44.534;18.700;2022-09-27T06:11:07;45.00;;;30.23;;
25511;SDS011;13414;44.534;18.700;2022-09-27T06:13:37;40.95;;;25.52;;
25511;SDS011;13414;44.534;18.700;2022-09-27T06:16:06;34.40;;;25.27;;
25511;SDS011;13414;44.534;18.700;2022-09-27T06:18:36;38.72;;;28.85;;
25511;SDS011;13414;44.534;18.700;2022-09-27T06:21:04;30.25;;;22.73;;
25511;SDS011;13414;44.534;18.700;2022-09-27T06:23:33;32.08;;;23.33;;
25511;SDS011;13414;44.534;18.700;2022-09-27T06:26:10;28.20;;;19.25;;
25511;SDS011;13414;44.534;18.700;2022-09-27T06:28:56;23.63;;;17.50;;
25511;SDS011;13414;44.534;18.700;2022-09-27T06:31:24;23.40;;;18.35;;
25511;SDS011;13414;44.534;18.700;2022-09-27T06:34:01;31.02;;;21.77;;
25511;SDS011;13414;44.534;18.700;2022-09-27T06:36:29;26.05;;;20.60;;
25511;SDS011;13414;44.534;18.700;2022-09-27T06:38:57;28.63;;;21.10;;
25511;SDS011;13414;44.534;18.700;2022-09-27T06:41:32;26.85;;;20.27;;
25511;SDS011;13414;44.534;18.700;2022-09-27T06:44:23;33.67;;;23.42;;
25511;SDS011;13414;44.534;18.700;2022-09-27T06:47:30;38.80;;;24.98;;
25511;SDS011;13414;44.534;18.700;2022-09-27T06:50:14;33.83;;;25.50;;
25511;SDS011;13414;44.534;18.700;2022-09-27T06:52:46;23.65;;;19.42;;
25511;SDS011;13414;44.534;18.700;2022-09-27T06:55:15;27.60;;;19.95;;
25511;SDS011;13414;44.534;18.700;2022-09-27T06:57:45;35.95;;;24.05;;
25511;SDS011;13414;44.534;18.700;2022-09-27T07:00:30;34.60;;;24.08;;
25511;SDS011;13414;44.534;18.700;2022-09-27T07:03:03;35.08;;;23.58;;
25511;SDS011;13414;44.534;18.700;2022-09-27T07:05:53;33.22;;;22.63;;
25511;SDS011;13414;44.534;18.700;2022-09-27T07:08:41;35.25;;;22.92;;
25511;SDS011;13414;44.534;18.700;2022-09-27T07:11:10;32.70;;;23.15;;
25511;SDS011;13414;44.534;18.700;2022-09-27T07:13:41;33.47;;;22.00;;
25511;SDS011;13414;44.534;18.700;2022-09-27T07:16:09;29.25;;;21.52;;
25511;SDS011;13414;44.534;18.700;2022-09-27T07:18:39;33.08;;;21.10;;
25511;SDS011;13414;44.534;18.700;2022-09-27T07:21:07;28.95;;;20.95;;
25511;SDS011;13414;44.534;18.700;2022-09-27T07:23:37;30.67;;;18.17;;
25511;SDS011;13414;44.534;18.700;2022-09-27T07:26:06;30.23;;;18.85;;
25511;SDS011;13414;44.534;18.700;2022-09-27T07:28:35;28.73;;;19.10;;
25511;SDS011;13414;44.534;18.700;2022-09-27T07:31:06;26.05;;;17.75;;
25511;SDS011;13414;44.534;18.700;2022-09-27T07:33:34;30.90;;;19.90;;
25511;SDS011;13414;44.534;18.700;2022-09-27T07:36:05;32.63;;;23.50;;
25511;SDS011;13414;44.534;18.700;2022-09-27T07:38:34;23.92;;;18.48;;
25511;SDS011;13414;44.534;18.700;2022-09-27T07:41:05;23.88;;;16.65;;
25511;SDS011;13414;44.534;18.700;2022-09-27T07:43:33;23.25;;;17.77;;
25511;SDS011;13414;44.534;18.700;2022-09-27T07:46:00;34.38;;;19.45;;
25511;SDS011;13414;44.534;18.700;2022-09-27T07:51:35;26.73;;;18.48;;
25511;SDS011;13414;44.534;18.700;2022-09-27T07:54:25;27.33;;;18.55;;
25511;SDS011;13414;44.534;18.700;2022-09-27T07:57:12;24.90;;;20.50;;
25511;SDS011;13414;44.534;18.700;2022-09-27T07:59:47;29.65;;;19.63;;
25511;SDS011;13414;44.534;18.700;2022-09-27T08:02:17;31.33;;;20.83;;
25511;SDS011;13414;44.534;18.700;2022-09-27T08:04:48;30.08;;;21.23;;
25511;SDS011;13414;44.534;18.700;2022-09-27T08:07:17;27.63;;;19.42;;
25511;SDS011;13414;44.534;18.700;2022-09-27T08:09:49;33.72;;;22.65;;
25511;SDS011;13414;44.534;18.700;2022-09-27T08:12:17;29.95;;;22.90;;
25511;SDS011;13414;44.534;18.700;2022-09-27T08:14:46;28.25;;;19.80;;
25511;SDS011;13414;44.534;18.700;2022-09-27T08:17:13;26.40;;;17.83;;
25511;SDS011;13414;44.534;18.700;2022-09-27T08:20:02;23.13;;;17.95;;
25511;SDS011;13414;44.534;18.700;2022-09-27T08:22:54;29.02;;;20.55;;
25511;SDS011;13414;44.534;18.700;2022-09-27T08:25:33;30.05;;;21.67;;
25511;SDS011;13414;44.534;18.700;2022-09-27T08:28:03;25.27;;;19.85;;
25511;SDS011;13414;44.534;18.700;2022-09-27T08:30:38;27.92;;;19.40;;
25511;SDS011;13414;44.534;18.700;2022-09-27T08:33:06;24.33;;;18.95;;
25511;SDS011;13414;44.534;18.700;2022-09-27T08:35:35;32.10;;;21.73;;
25511;SDS011;13414;44.534;18.700;2022-09-27T08:38:04;29.73;;;23.73;;
25511;SDS011;13414;44.534;18.700;2022-09-27T08:40:36;38.13;;;29.00;;
25511;SDS011;13414;44.534;18.700;2022-09-27T08:43:16;40.28;;;29.10;;
25511;SDS011;13414;44.534;18.700;2022-09-27T08:45:54;31.23;;;26.45;;
25511;SDS011;13414;44.534;18.700;2022-09-27T08:48:33;30.33;;;25.58;;
25511;SDS011;13414;44.534;18.700;2022-09-27T08:51:04;32.92;;;25.15;;
25511;SDS011;13414;44.534;18.700;2022-09-27T08:53:37;31.60;;;24.67;;
25511;SDS011;13414;44.534;18.700;2022-09-27T08:56:08;32.42;;;23.98;;
25511;SDS011;13414;44.534;18.700;2022-09-27T08:58:42;28.63;;;22.27;;
25511;SDS011;13414;44.534;18.700;2022-09-27T09:01:19;25.48;;;20.42;;
25511;SDS011;13414;44.534;18.700;2022-09-27T09:03:54;26.65;;;22.27;;
25511;SDS011;13414;44.534;18.700;2022-09-27T09:06:27;36.13;;;23.92;;
25511;SDS011;13414;44.534;18.700;2022-09-27T09:09:01;22.80;;;18.27;;
25511;SDS011;13414;44.534;18.700;2022-09-27T09:11:43;22.98;;;18.23;;
25511;SDS011;13414;44.534;18.700;2022-09-27T09:14:44;20.90;;;16.58;;
25511;SDS011;13414;44.534;18.700;2022-09-27T09:17:23;22.90;;;16.83;;
25511;SDS011;13414;44.534;18.700;2022-09-27T09:20:21;20.20;;;16.00;;
25511;SDS011;13414;44.534;18.700;2022-09-27T09:23:04;26.67;;;18.90;;
25511;SDS011;13414;44.534;18.700;2022-09-27T09:25:50;24.38;;;17.77;;
25511;SDS011;13414;44.534;18.700;2022-09-27T09:28:27;24.52;;;18.05;;
25511;SDS011;13414;44.534;18.700;2022-09-27T09:31:11;23.40;;;15.60;;
25511;SDS011;13414;44.534;18.700;2022-09-27T09:33:48;24.63;;;18.27;;
25511;SDS011;13414;44.534;18.700;2022-09-27T09:36:23;23.55;;;17.33;;
25511;SDS011;13414;44.534;18.700;2022-09-27T09:38:57;21.98;;;15.77;;
25511;SDS011;13414;44.534;18.700;2022-09-27T09:41:29;20.55;;;17.52;;
25511;SDS011;13414;44.534;18.700;2022-09-27T09:44:01;26.27;;;18.75;;
25511;SDS011;13414;44.534;18.700;2022-09-27T09:46:36;20.07;;;16.37;;
25511;SDS011;13414;44.534;18.700;2022-09-27T09:49:32;25.13;;;18.52;;
25511;SDS011;13414;44.534;18.700;2022-09-27T09:52:06;24.02;;;16.00;;
25511;SDS011;13414;44.534;18.700;2022-09-27T09:54:41;20.00;;;16.35;;
25511;SDS011;13414;44.534;18.700;2022-09-27T09:57:13;23.17;;;17.65;;
25511;SDS011;13414;44.534;18.700;2022-09-27T10:00:12;22.42;;;18.60;;
25511;SDS011;13414;44.534;18.700;2022-09-27T10:02:43;24.52;;;21.10;;
25511;SDS011;13414;44.534;18.700;2022-09-27T10:05:15;26.98;;;19.98;;
25511;SDS011;13414;44.534;18.700;2022-09-27T10:07:50;29.27;;;23.33;;
25511;SDS011;13414;44.534;18.700;2022-09-27T10:10:20;34.25;;;21.65;;
25511;SDS011;13414;44.534;18.700;2022-09-27T10:12:48;30.58;;;19.52;;
25511;SDS011;13414;44.534;18.700;2022-09-27T10:15:21;34.03;;;21.88;;
25511;SDS011;13414;44.534;18.700;2022-09-27T10:17:51;37.60;;;22.88;;
25511;SDS011;13414;44.534;18.700;2022-09-27T10:20:24;39.67;;;23.42;;
25511;SDS011;13414;44.534;18.700;2022-09-27T10:22:58;38.63;;;27.37;;
25511;SDS011;13414;44.534;18.700;2022-09-27T10:25:52;45.00;;;27.08;;
25511;SDS011;13414;44.534;18.700;2022-09-27T10:28:34;51.25;;;31.98;;
25511;SDS011;13414;44.534;18.700;2022-09-27T10:31:04;54.45;;;33.58;;
25511;SDS011;13414;44.534;18.700;2022-09-27T10:33:50;57.60;;;37.08;;
25511;SDS011;13414;44.534;18.700;2022-09-27T10:36:21;74.65;;;43.60;;
25511;SDS011;13414;44.534;18.700;2022-09-27T10:38:51;81.10;;;47.67;;
25511;SDS011;13414;44.534;18.700;2022-09-27T10:41:32;98.05;;;51.65;;
25511;SDS011;13414;44.534;18.700;2022-09-27T10:44:18;90.30;;;49.00;;
25511;SDS011;13414;44.534;18.700;2022-09-27T10:47:05;82.68;;;47.53;;
25511;SDS011;13414;44.534;18.700;2022-09-27T10:50:04;80.53;;;44.72;;
25511;SDS011;13414;44.534;18.700;2022-09-27T10:52:59;84.35;;;44.13;;
25511;SDS011;13414;44.534;18.700;2022-09-27T10:55:30;79.95;;;41.22;;
25511;SDS011;13414;44.534;18.700;2022-09-27T10:58:02;73.95;;;39.95;;
25511;SDS011;13414;44.534;18.700;2022-09-27T11:00:31;66.38;;;37.72;;
25511;SDS011;13414;44.534;18.700;2022-09-27T11:03:02;60.42;;;34.88;;
25511;SDS011;13414;44.534;18.700;2022-09-27T11:05:35;94.53;;;49.50;;
25511;SDS011;13414;44.534;18.700;2022-09-27T11:08:19;77.50;;;41.03;;
25511;SDS011;13414;44.534;18.700;2022-09-27T11:10:59;84.22;;;41.85;;
25511;SDS011;13414;44.534;18.700;2022-09-27T11:13:36;78.22;;;42.22;;
25511;SDS011;13414;44.534;18.700;2022-09-27T11:16:16;97.55;;;53.40;;
25511;SDS011;13414;44.534;18.700;2022-09-27T11:18:55;96.78;;;50.60;;
25511;SDS011;13414;44.534;18.700;2022-09-27T11:21:32;86.05;;;47.97;;
25511;SDS011;13414;44.534;18.700;2022-09-27T11:24:17;80.95;;;47.97;;
25511;SDS011;13414;44.534;18.700;2022-09-27T11:26:59;83.72;;;46.92;;
25511;SDS011;13414;44.534;18.700;2022-09-27T11:29:38;83.75;;;46.42;;
25511;SDS011;13414;44.534;18.700;2022-09-27T11:32:40;72.82;;;44.90;;
25511;SDS011;13414;44.534;18.700;2022-09-27T11:35:41;85.57;;;52.83;;
25511;SDS011;13414;44.534;18.700;2022-09-27T11:38:18;68.43;;;42.15;;
25511;SDS011;13414;44.534;18.700;2022-09-27T11:40:59;69.17;;;43.10;;
25511;SDS011;13414;44.534;18.700;2022-09-27T11:43:40;55.45;;;36.38;;
25511;SDS011;13414;44.534;18.700;2022-09-27T11:46:26;51.47;;;31.50;;
25511;SDS011;13414;44.534;18.700;2022-09-27T11:49:08;42.22;;;29.23;;
25511;SDS011;13414;44.534;18.700;2022-09-27T11:52:02;34.67;;;22.52;;
25511;SDS011;13414;44.534;18.700;2022-09-27T11:57:42;30.23;;;20.40;;
25511;SDS011;13414;44.534;18.700;2022-09-27T12:00:16;22.38;;;15.00;;
25511;SDS011;13414;44.534;18.700;2022-09-27T12:06:02;21.73;;;12.43;;
25511;SDS011;13414;44.534;18.700;2022-09-27T12:08:48;15.82;;;10.20;;
25511;SDS011;13414;44.534;18.700;2022-09-27T12:11:25;19.77;;;13.48;;
25511;SDS011;13414;44.534;18.700;2022-09-27T12:13:57;38.33;;;15.00;;
25511;SDS011;13414;44.534;18.700;2022-09-27T12:16:29;21.90;;;15.75;;
25511;SDS011;13414;44.534;18.700;2022-09-27T12:18:59;18.08;;;12.13;;
25511;SDS011;13414;44.534;18.700;2022-09-27T12:21:49;19.83;;;12.82;;
25511;SDS011;13414;44.534;18.700;2022-09-27T12:24:17;20.13;;;13.40;;
25511;SDS011;13414;44.534;18.700;2022-09-27T12:27:09;15.32;;;10.63;;
25511;SDS011;13414;44.534;18.700;2022-09-27T12:29:42;17.90;;;12.57;;
25511;SDS011;13414;44.534;18.700;2022-09-27T12:32:13;20.15;;;13.63;;
25511;SDS011;13414;44.534;18.700;2022-09-27T12:34:46;17.13;;;12.38;;
25511;SDS011;13414;44.534;18.700;2022-09-27T12:37:18;23.00;;;15.60;;
25511;SDS011;13414;44.534;18.700;2022-09-27T12:39:51;17.85;;;11.45;;
25511;SDS011;13414;44.534;18.700;2022-09-27T12:42:30;16.73;;;10.82;;
25511;SDS011;13414;44.534;18.700;2022-09-27T12:45:12;18.33;;;13.43;;
25511;SDS011;13414;44.534;18.700;2022-09-27T12:47:45;15.30;;;10.93;;
25511;SDS011;13414;44.534;18.700;2022-09-27T12:50:28;17.42;;;11.32;;
25511;SDS011;13414;44.534;18.700;2022-09-27T12:53:02;18.35;;;10.98;;
25511;SDS011;13414;44.534;18.700;2022-09-27T12:58:50;14.68;;;10.10;;
25511;SDS011;13414;44.534;18.700;2022-09-27T13:01:46;17.85;;;12.75;;
25511;SDS011;13414;44.534;18.700;2022-09-27T13:04:48;12.70;;;7.82;;
25511;SDS011;13414;44.534;18.700;2022-09-27T13:07:37;15.57;;;10.10;;
25511;SDS011;13414;44.534;18.700;2022-09-27T13:10:32;15.18;;;10.20;;
25511;SDS011;13414;44.534;18.700;2022-09-27T13:13:20;18.48;;;11.73;;
25511;SDS011;13414;44.534;18.700;2022-09-27T13:15:52;16.50;;;12.15;;
25511;SDS011;13414;44.534;18.700;2022-09-27T13:18:29;17.25;;;12.07;;
25511;SDS011;13414;44.534;18.700;2022-09-27T13:24:40;47.83;;;35.78;;
25511;SDS011;13414;44.534;18.700;2022-09-27T13:27:37;32.83;;;24.48;;
25511;SDS011;13414;44.534;18.700;2022-09-27T13:36:20;11.43;;;7.15;;
25511;SDS011;13414;44.534;18.700;2022-09-27T13:39:15;11.27;;;7.90;;
25511;SDS011;13414;44.534;18.700;2022-09-27T13:42:29;12.63;;;8.07;;
25511;SDS011;13414;44.534;18.700;2022-09-27T13:45:18;11.88;;;7.70;;
25511;SDS011;13414;44.534;18.700;2022-09-27T13:47:54;10.63;;;7.30;;
25511;SDS011;13414;44.534;18.700;2022-09-27T13:50:36;12.25;;;7.60;;
25511;SDS011;13414;44.534;18.700;2022-09-27T13:53:18;12.50;;;9.57;;
25511;SDS011;13414;44.534;18.700;2022-09-27T13:55:50;8.60;;;6.25;;
25511;SDS011;13414;44.534;18.700;2022-09-27T14:01:42;11.07;;;6.00;;
25511;SDS011;13414;44.534;18.700;2022-09-27T14:04:17;10.13;;;6.40;;
25511;SDS011;13414;44.534;18.700;2022-09-27T14:06:49;12.88;;;7.55;;
25511;SDS011;13414;44.534;18.700;2022-09-27T14:09:20;11.80;;;7.60;;
25511;SDS011;13414;44.534;18.700;2022-09-27T14:12:02;12.48;;;7.55;;
25511;SDS011;13414;44.534;18.700;2022-09-27T14:14:37;15.60;;;8.20;;
25511;SDS011;13414;44.534;18.700;2022-09-27T14:17:08;11.15;;;7.97;;
25511;SDS011;13414;44.534;18.700;2022-09-27T14:19:37;7.53;;;3.72;;
25511;SDS011;13414;44.534;18.700;2022-09-27T14:22:11;8.95;;;4.60;;
25511;SDS011;13414;44.534;18.700;2022-09-27T14:25:00;8.05;;;4.63;;
25511;SDS011;13414;44.534;18.700;2022-09-27T14:27:36;7.80;;;4.88;;
25511;SDS011;13414;44.534;18.700;2022-09-27T14:30:14;7.80;;;4.72;;
25511;SDS011;13414;44.534;18.700;2022-09-27T14:32:49;9.48;;;5.60;;
25511;SDS011;13414;44.534;18.700;2022-09-27T14:35:29;11.13;;;6.80;;
25511;SDS011;13414;44.534;18.700;2022-09-27T14:38:17;12.32;;;5.72;;
25511;SDS011;13414;44.534;18.700;2022-09-27T14:40:53;8.18;;;5.32;;
25511;SDS011;13414;44.534;18.700;2022-09-27T14:43:24;9.48;;;4.50;;
25511;SDS011;13414;44.534;18.700;2022-09-27T14:45:57;9.70;;;5.07;;
25511;SDS011;13414;44.534;18.700;2022-09-27T14:48:27;10.93;;;6.57;;
25511;SDS011;13414;44.534;18.700;2022-09-27T14:50:56;8.25;;;4.63;;
25511;SDS011;13414;44.534;18.700;2022-09-27T14:53:26;8.82;;;6.18;;
25511;SDS011;13414;44.534;18.700;2022-09-27T14:55:55;6.95;;;4.60;;
25511;SDS011;13414;44.534;18.700;2022-09-27T14:58:23;10.18;;;6.45;;
25511;SDS011;13414;44.534;18.700;2022-09-27T15:00:51;11.45;;;6.90;;
25511;SDS011;13414;44.534;18.700;2022-09-27T15:03:22;10.50;;;6.95;;
25511;SDS011;13414;44.534;18.700;2022-09-27T15:05:54;9.32;;;4.75;;
25511;SDS011;13414;44.534;18.700;2022-09-27T15:08:24;7.18;;;4.95;;
25511;SDS011;13414;44.534;18.700;2022-09-27T15:10:57;8.82;;;5.50;;
25511;SDS011;13414;44.534;18.700;2022-09-27T15:13:25;6.60;;;4.25;;
25511;SDS011;13414;44.534;18.700;2022-09-27T15:15:55;11.23;;;6.78;;
25511;SDS011;13414;44.534;18.700;2022-09-27T15:18:32;9.02;;;6.53;;
25511;SDS011;13414;44.534;18.700;2022-09-27T15:21:05;8.85;;;5.32;;
25511;SDS011;13414;44.534;18.700;2022-09-27T15:23:34;9.30;;;5.97;;
25511;SDS011;13414;44.534;18.700;2022-09-27T15:26:05;8.45;;;5.20;;
25511;SDS011;13414;44.534;18.700;2022-09-27T15:28:36;8.27;;;6.00;;